Terminal Aerodrome Forecast
Issued by NWS Louisville, KY

Home | Current Version | Previous Version | Text Only | Print | Product List | Glossary On
Versions: 1 2 3 4 5 6 7 8 9 10 11 12 13 14 15 16
000
FTUS43 KLMK 271000 CCA
TAFLEX
TAF COR
KLEX 271042Z 2711/2806 17005KT P6SM BKN060
     FM272100 22008KT P6SM VCSH OVC040
     FM272300 22006KT 5SM -RA BR BKN022
     FM280300 22005KT 4SM -RA BR BKN008=

USA.gov is the U.S. government's official web portal to all federal, state and local government web resources and services.